Hallock, MN

11:24 PM CST on February 23, 2017 (GMT -0600)
Hallock Municipal

Weather History for KHCO - March, 2014

Change the Weather History Date:

Tuesday, March 11, 2014

  Actual Average Record
Temperature  
Mean Temperature 20 °F -  
Max Temperature 30 °F 29 °F 60 °F (2016)
Min Temperature 10 °F 8 °F -29 °F (1948)
Degree Days  
Heating Degree Days 45    
Moisture  
Dew Point 12 °F    
Average Humidity 75    
Maximum Humidity 93    
Minimum Humidity 57    
Precipitation  
Precipitation 0.00 in - - ()
Sea Level Pressure  
Sea Level Pressure 30.04 in    
Wind  
Wind Speed 11 mph (NNW)    
Max Wind Speed 23 mph    
Max Gust Speed 26 mph    
Visibility 10 miles    
Events      
Averages and records for this station are not official NWS values.
T = Trace of Precipitation, MM = Missing Value Source: NWS Daily Summary

Daily Weather History Graph

Daily Weather History Graph

Search for Another Location

Airport or City:

Trip Planner

Search our weather history database for the weather conditions in past years. The results will help you decide how hot, cold, wet, or windy it might be!

Date:

Astronomy

Mar. 11, 2014 Rise Set
Actual Time 7:49 AM CDT 7:27 PM CDT
Civil Twilight 7:17 AM CDT 7:58 PM CDT
Nautical Twilight 6:41 AM CDT 8:35 PM CDT
Astronomical Twilight 6:04 AM CDT 9:12 PM CDT
Moon 2:47 PM CDT (3/11) 5:01 AM CDT (3/11)
Length of Visible Light 12h 40m
Length of Day
11h 37m
Waxing Gibbous, 78% of the Moon is Illuminated
Mar 11
Waxing Gibbous
Mar 16
Full
Mar 23
Last Quarter
Mar 30
New
Apr 7
First Quarter

Hourly Weather History & Observations

Time (CDT) Temp. Windchill Dew Point Humidity Pressure Visibility Wind Dir Wind Speed Gust Speed Precip Events Conditions
12:13 AM 30.2 °F 23.4 °F 26.6 °F 86% 29.75 in 10.0 mi NNW 6.9 mph - N/A   Clear
12:33 AM 30.2 °F 23.4 °F 26.6 °F 86% 29.76 in 10.0 mi NNW 6.9 mph - N/A   Clear
12:53 AM 28.4 °F 21.2 °F 26.6 °F 93% 29.76 in 10.0 mi NNW 6.9 mph - N/A   Clear
1:14 AM 28.4 °F 22.2 °F 26.6 °F 93% 29.77 in 10.0 mi NNW 5.8 mph - N/A   Clear
1:33 AM 26.6 °F 20.0 °F 24.8 °F 93% 29.78 in 10.0 mi NNW 5.8 mph - N/A   Clear
1:53 AM 26.6 °F 20.0 °F 24.8 °F 93% 29.79 in 10.0 mi NNW 5.8 mph - N/A   Clear
2:14 AM 26.6 °F 18.2 °F 24.8 °F 93% 29.79 in 10.0 mi NNW 8.1 mph - N/A   Clear
2:33 AM 26.6 °F 18.2 °F 24.8 °F 93% 29.80 in 10.0 mi North 8.1 mph - N/A   Clear
2:53 AM 26.6 °F 17.5 °F 24.8 °F 93% 29.81 in 10.0 mi North 9.2 mph - N/A   Clear
3:14 AM 24.8 °F 14.6 °F 21.2 °F 86% 29.82 in 10.0 mi NNE 10.4 mph - N/A   Clear
3:33 AM 24.8 °F 12.9 °F 21.2 °F 86% 29.83 in 10.0 mi NNE 13.8 mph - N/A   Clear
3:53 AM 26.6 °F 13.4 °F 19.4 °F 74% 29.83 in 10.0 mi NNE 18.4 mph - N/A   Clear
4:13 AM 24.8 °F 12.9 °F 17.6 °F 74% 29.84 in 10.0 mi NNE 13.8 mph - N/A   Clear
4:33 AM 24.8 °F 13.4 °F 17.6 °F 74% 29.86 in 10.0 mi North 12.7 mph - N/A   Clear
4:53 AM 24.8 °F 14.6 °F 17.6 °F 74% 29.87 in 10.0 mi North 10.4 mph - N/A   Clear
5:13 AM 23.0 °F 11.7 °F 17.6 °F 80% 29.88 in 10.0 mi North 11.5 mph - N/A   Clear
5:33 AM 23.0 °F 12.4 °F 17.6 °F 80% 29.89 in 10.0 mi North 10.4 mph - N/A   Clear
5:53 AM 21.2 °F 10.9 °F 15.8 °F 80% 29.90 in 10.0 mi North 9.2 mph - N/A   Clear
6:13 AM 21.2 °F 9.5 °F 15.8 °F 80% 29.92 in 10.0 mi North 11.5 mph - N/A   Clear
6:33 AM 19.4 °F 8.6 °F 14.0 °F 80% 29.94 in 10.0 mi NNW 9.2 mph - N/A   Clear
6:53 AM 17.6 °F 7.3 °F 14.0 °F 86% 29.94 in 10.0 mi NNW 8.1 mph - N/A   Clear
7:13 AM 17.6 °F 6.4 °F 12.2 °F 79% 29.95 in 10.0 mi NNW 9.2 mph - N/A   Clear
7:33 AM 17.6 °F 5.0 °F 12.2 °F 79% 29.96 in 10.0 mi NNW 11.5 mph - N/A   Clear
7:53 AM 17.6 °F 6.4 °F 12.2 °F 79% 29.97 in 10.0 mi North 9.2 mph - N/A   Clear
8:13 AM 15.8 °F 1.4 °F 12.2 °F 86% 29.98 in 10.0 mi NNW 13.8 mph - N/A   Clear
8:33 AM 15.8 °F 2.1 °F 12.2 °F 86% 29.99 in 10.0 mi NNW 12.7 mph - N/A   Clear
8:53 AM 17.6 °F 4.3 °F 12.2 °F 79% 30.00 in 10.0 mi NNW 12.7 mph - N/A   Clear
9:13 AM 17.6 °F 5.7 °F 12.2 °F 79% 30.01 in 10.0 mi NNW 10.4 mph - N/A   Clear
9:33 AM 17.6 °F 3.7 °F 12.2 °F 79% 30.03 in 10.0 mi NNW 13.8 mph 17.3 mph N/A   Clear
9:53 AM 17.6 °F 4.3 °F 12.2 °F 79% 30.04 in 10.0 mi NNW 12.7 mph - N/A   Clear
10:13 AM 17.6 °F 3.7 °F 12.2 °F 79% 30.05 in 10.0 mi NNW 13.8 mph - N/A   Clear
10:33 AM 19.4 °F 6.0 °F 12.2 °F 74% 30.05 in 10.0 mi North 13.8 mph - N/A   Clear
10:53 AM 19.4 °F 5.0 °F 12.2 °F 74% 30.06 in 10.0 mi North 16.1 mph - N/A   Scattered Clouds
11:13 AM 19.4 °F 5.5 °F 14.0 °F 80% 30.08 in 10.0 mi NNW 15.0 mph - N/A   Scattered Clouds
11:33 AM 19.4 °F 5.5 °F 14.0 °F 80% 30.08 in 10.0 mi NNW 15.0 mph - N/A   Scattered Clouds
11:53 AM 21.2 °F 7.8 °F 14.0 °F 74% 30.10 in 10.0 mi NNW 15.0 mph - N/A   Scattered Clouds
12:13 PM 21.2 °F 6.8 °F 14.0 °F 74% 30.10 in 10.0 mi NNW 17.3 mph - N/A   Overcast
12:33 PM 21.2 °F 6.8 °F 14.0 °F 74% 30.11 in 10.0 mi NNW 17.3 mph 21.9 mph N/A   Scattered Clouds
12:53 PM 21.2 °F 5.6 °F 12.2 °F 68% 30.11 in 10.0 mi North 20.7 mph - N/A   Mostly Cloudy
1:13 PM 21.2 °F 5.2 °F 12.2 °F 68% 30.13 in 10.0 mi NNW 21.9 mph 26.5 mph N/A   Overcast
1:33 PM 21.2 °F 6.0 °F 14.0 °F 74% 30.13 in 10.0 mi North 19.6 mph - N/A   Overcast
1:53 PM 21.2 °F 6.0 °F 12.2 °F 68% 30.13 in 10.0 mi North 19.6 mph 24.2 mph N/A   Mostly Cloudy
2:13 PM 21.2 °F 6.0 °F 12.2 °F 68% 30.13 in 10.0 mi NNW 19.6 mph - N/A   Mostly Cloudy
2:33 PM 21.2 °F 4.9 °F 12.2 °F 68% 30.14 in 10.0 mi NNW 23.0 mph - N/A   Mostly Cloudy
2:53 PM 21.2 °F 6.0 °F 12.2 °F 68% 30.14 in 10.0 mi NNW 19.6 mph 25.3 mph N/A   Overcast
3:13 PM 19.4 °F 4.1 °F 10.4 °F 68% 30.14 in 10.0 mi NNW 18.4 mph - N/A   Overcast
3:33 PM 19.4 °F 5.0 °F 10.4 °F 68% 30.14 in 10.0 mi NNW 16.1 mph - N/A   Overcast
3:53 PM 19.4 °F 3.6 °F 10.4 °F 68% 30.14 in 10.0 mi NNW 19.6 mph 24.2 mph N/A   Overcast
4:13 PM 19.4 °F 5.0 °F 10.4 °F 68% 30.15 in 10.0 mi NNW 16.1 mph - N/A   Overcast
4:33 PM 19.4 °F 4.5 °F 10.4 °F 68% 30.15 in 10.0 mi NNW 17.3 mph 23.0 mph N/A   Overcast
4:54 PM 17.6 °F 1.3 °F 8.6 °F 68% 30.16 in 10.0 mi NNW 19.6 mph 23.0 mph N/A   Overcast
5:13 PM 17.6 °F 2.2 °F 8.6 °F 68% 30.16 in 10.0 mi NNW 17.3 mph - N/A   Overcast
5:33 PM 17.6 °F 1.7 °F 8.6 °F 68% 30.16 in 10.0 mi NNW 18.4 mph - N/A   Overcast
5:54 PM 17.6 °F 2.2 °F 6.8 °F 63% 30.17 in 10.0 mi North 17.3 mph - N/A   Overcast
6:13 PM 15.8 °F 0.3 °F 6.8 °F 68% 30.17 in 10.0 mi North 16.1 mph - N/A   Overcast
6:33 PM 15.8 °F 0.3 °F 6.8 °F 68% 30.18 in 10.0 mi North 16.1 mph 20.7 mph N/A   Overcast
6:53 PM 15.8 °F 0.3 °F 5.0 °F 62% 30.19 in 10.0 mi NNW 16.1 mph - N/A   Overcast
7:13 PM 15.8 °F 2.7 °F 5.0 °F 62% 30.19 in 10.0 mi NNW 11.5 mph - N/A   Overcast
7:34 PM 14.0 °F 0.5 °F 5.0 °F 67% 30.20 in 10.0 mi NNW 11.5 mph - N/A   Mostly Cloudy
7:53 PM 12.2 °F -1.0 °F 5.0 °F 73% 30.20 in 10.0 mi NNW 10.4 mph - N/A   Mostly Cloudy
8:13 PM 12.2 °F -1.0 °F 5.0 °F 73% 30.21 in 10.0 mi NNW 10.4 mph - N/A   Overcast
8:33 PM 12.2 °F -2.5 °F 3.2 °F 67% 30.22 in 10.0 mi NNW 12.7 mph - N/A   Overcast
8:53 PM 12.2 °F -1.8 °F 1.4 °F 62% 30.21 in 10.0 mi North 11.5 mph - N/A   Overcast
9:13 PM 12.2 °F -1.0 °F 3.2 °F 67% 30.22 in 10.0 mi NNW 10.4 mph - N/A   Overcast
9:33 PM 12.2 °F -1.0 °F 3.2 °F 67% 30.22 in 10.0 mi North 10.4 mph - N/A   Overcast
9:53 PM 12.2 °F 1.7 °F 3.2 °F 67% 30.21 in 10.0 mi North 6.9 mph - N/A   Overcast
10:13 PM 10.4 °F 0.8 °F 3.2 °F 73% 30.22 in 10.0 mi North 5.8 mph - N/A   Scattered Clouds
10:33 PM 10.4 °F 2.2 °F 3.2 °F 73% 30.21 in 10.0 mi NNE 4.6 mph - N/A   Scattered Clouds
10:53 PM 10.4 °F 0.8 °F 3.2 °F 73% 30.22 in 10.0 mi North 5.8 mph - N/A   Overcast
11:13 PM 10.4 °F 0.8 °F 1.4 °F 67% 30.21 in 10.0 mi NNE 5.8 mph - N/A   Overcast
11:33 PM 10.4 °F -1.5 °F -0.4 °F 62% 30.22 in 10.0 mi North 8.1 mph - N/A   Mostly Cloudy
11:53 PM 10.4 °F -0.4 °F -2.2 °F 57% 30.22 in 10.0 mi NNE 6.9 mph - N/A   Mostly Cloudy